METAR Data
IDs: Format: Raw Decoded Include TAF

Data at: 2355 UTC 17 Apr 2021

FNLU 172300Z VRB02KT 9999 FEW020 28/22 Q1008

TAF FNLU 172300Z 1800/1906 18006KT 9999 FEW020
  BECMG 1809/1811 26010KT
  PROB40
  TEMPO 1811/1815 7000 -RA SCT020
  BECMG 1818/1820 21008KT


No METAR found for FNCA

TAF FNCA 172300Z 1800/1812 18006KT 9999 SCT015 BKN050
  PROB30
  TEMPO 1802/1806 6000
  BECMG 1810/1812 25008KT 7000 -RA


No METAR found for FNBG

TAF FNBG 172300Z 1800/1812 VRB03KT 9999 FEW015
  TEMPO 1808/1812 29010KT


No METAR found for FNHU

TAF FNHU 172300Z 1800/1812 08006KT 9999 FEW020

No METAR found for FNUE

TAF FNUE 172300Z 1800/1812 13006KT 9999 SCT025

No METAR found for FNGI

TAF FNGI 172300Z 1800/1812 08006KT 9999 FEW020
  TEMPO 1808/1812 08016KT


No METAR found for FNUB

TAF FNUB 172300Z 1800/1812 21006KT 9999 SCT020
  TEMPO 1808/1812 04008KT


No METAR found for FNMO

TAF FNMO 172300Z 1800/1812 16008KT 9999 SCT022
  TEMPO 1808/1812 27010KT


No METAR found for FNUG
No TAF found for FNUG

No METAR found for FNMA

TAF FNMA 172300Z 1800/1812 08008KT 9999 BKN015

No METAR found for FNSA

TAF FNSA 172300Z 1800/1812 12006KT CAVOK
  BECMG 1810/1812 9999 STC030


No METAR found for FNSO

TAF FNSO 172300Z 1800/1812 17006KT 9999 SCT012 BKN050
  BECMG 1810/1812 25008KT 8000


No METAR found for FNBC
No TAF found for FNBC

No METAR found for FNSU
No TAF found for FNSU

No METAR found for FNDU

TAF FNDU 172300Z 1800/1812 15005KT 9999 FEW020 BKN030
  BECMG 1810/1812 09005KT


No METAR found for FNME

TAF FNME 172300Z 1800/1812 09008KT 9999 FEW022

No METAR found for FNCT

TAF FNCT 172300Z 1800/1812 09008KT 9999 FEW015
  TEMPO 1808/1812 31010KT


No METAR found for FNKU

TAF FNKU 172300Z 1800/1812 09008KT CAVOK
  BECMG 1810/1812 9999 SCT020